Airfield :
LOGIN :

Register | Disclaimer

   EN    FR    IT 

 










Legend :    VFR   Marginal VFR   IFR   Intensive IFR   Very Intensive IFR
Visi :
Ceiling :
>= 8 km
>= 3000ft
5 to 8 km
1000 to 3000 ft
1500m to 5 km
500 to 1000 ft
800 to 1500m
200 to 500 ft
< 800m
< 200 ft
Symbols :   Thunderstorms  Fog  Heavy snow  Heavy precipitations  Wind > 20 kt
SIGMETs :     Misc.  Thunderstorms  Icing  Turbulence  Mountain Waves  Volcanic Ashes







- Airport Elevation : 325 ft
- IATA code : BES
- Download approach charts


LFRB - Brest

CURRENT METAR :
  • 200930Z AUTO 19007KT 3900 BR OVC002 10/10 Q1034 BECMG OVC006

EXPIRED METARs :
  • 200900Z AUTO 20006KT 1200 0750 R25/1900U R07/2000D BCFG VV/// 10/10 Q1034 BECMG 4000 BR OVC006
  • 200830Z AUTO 19005KT 2200 -DZ BR VV/// 10/09 Q1034 BECMG 4000 BR OVC006
  • 200800Z AUTO 18007KT 0800 R25/1100U R07/1100U DZ FG VV/// 09/09 Q1034 TEMPO 0500 FG
  • 200730Z AUTO 18005KT 0650 0600 R25/1300D R07/0800N FG VV/// 09/09 Q1034 BECMG 1500 BR
  • 200700Z AUTO 17004KT 1100 1000 R25/1800U R07/1600U -DZ BR VV/// 09/09 Q1033 BECMG 1500 BR

TAF AMD TAF LFRB
Valid from the 20 at 07:00 until the 21 at 12:00 UTC


200740Z 2007/2112 VRB04KT 1500 BR VV///
TEMPO 2007/2010 0500 FG VV///
BECMG 2010/2012 4000 BR OVC006
BECMG 2110/2112 9999 NSW FEW006 BKN012
ATIS : +33 2 98 32 02 71
No reported NOTAMs for that airfield.



MET'MAP, your aeronautical weather chart ! - Copyright ORBIFLY December 2007 - Disclaimer

ORBIFLY MET'MAP TEAM :

Programming & Development : Alexandra Zaïnal
Concept & Development : Baudouin d'Aumeries
Co-Development & Prog : Marc-Olivier Méhu
Technical & hardware support : Manuel Goepfert

Contact : metmap@orbifly.com




SOURCES & CREDITS :

   NOAA